Time;durP1;ratioP1;P1;durP2;ratioP2;P2;SDS_P1;SDS_P2;PMS_P1;PMS_P2;Temp;Humidity;BMP_temperature;BMP_pressure;BME280_temperature;BME280_humidity;BME280_pressure;Samples;Min_cycle;Max_cycle;Signal;HPM_P1;HPM_P2
2021/11/20 00:00:23;;;;;;;0.43;0.43;;;;;;;;;;4995916;28;20065;-89
2021/11/20 00:02:49;;;;;;;0.20;0.20;;;;;;;;;;4995583;28;20387;-89
2021/11/20 00:05:17;;;;;;;0.00;0.00;;;;;;;;;;4994756;28;20022;-89
2021/11/20 00:07:42;;;;;;;0.10;0.10;;;;;;;;;;4989412;28;20422;-89
2021/11/20 00:10:09;;;;;;;0.00;0.00;;;;;;;;;;4985374;28;20058;-89
2021/11/20 00:12:35;;;;;;;0.32;0.32;;;;;;;;;;4953531;29;20074;-89
2021/11/20 00:15:01;;;;;;;0.10;0.10;;;;;;;;;;4956977;29;20047;-89
2021/11/20 00:17:27;;;;;;;0.00;0.00;;;;;;;;;;4956766;29;20081;-88
2021/11/20 00:19:52;;;;;;;0.03;0.03;;;;;;;;;;4956662;29;20382;-88
2021/11/20 00:22:20;;;;;;;0.00;0.00;;;;;;;;;;4956586;29;20035;-88
2021/11/20 00:24:50;;;;;;;0.30;0.20;;;;;;;;;;4956595;29;20040;-88
2021/11/20 00:27:21;;;;;;;0.43;0.43;;;;;;;;;;4956567;29;20038;-88
2021/11/20 00:29:58;;;;;;;0.00;0.00;;;;;;;;;;4956415;29;20027;-88
2021/11/20 00:32:27;;;;;;;0.20;0.20;;;;;;;;;;4956401;29;20027;-88
2021/11/20 00:34:54;;;;;;;0.03;0.03;;;;;;;;;;4956367;29;20035;-88
2021/11/20 00:37:19;;;;;;;0.10;0.10;;;;;;;;;;4956363;29;20062;-88
2021/11/20 00:39:45;;;;;;;0.00;0.00;;;;;;;;;;4956531;29;20078;-89
2021/11/20 00:42:12;;;;;;;0.05;0.05;;;;;;;;;;4956262;29;20490;-90
2021/11/20 00:44:38;;;;;;;1.60;1.50;;;;;;;;;;4956576;29;20371;-88
2021/11/20 00:47:04;;;;;;;0.10;0.10;;;;;;;;;;4956303;29;20027;-88
2021/11/20 00:49:29;;;;;;;0.10;0.10;;;;;;;;;;4956130;29;20388;-88
2021/11/20 00:51:55;;;;;;;1.55;0.52;;;;;;;;;;4956084;29;20023;-88
2021/11/20 00:54:21;;;;;;;0.10;0.10;;;;;;;;;;4951562;29;20043;-88
2021/11/20 00:56:46;;;;;;;0.88;0.63;;;;;;;;;;4955634;29;20071;-88
2021/11/20 00:59:12;;;;;;;0.10;0.10;;;;;;;;;;4956066;29;20051;-88
2021/11/20 01:01:39;;;;;;;0.10;0.10;;;;;;;;;;4955621;29;20023;-88
2021/11/20 01:04:05;;;;;;;0.00;0.00;;;;;;;;;;4955971;29;20031;-87
2021/11/20 01:06:31;;;;;;;0.70;0.70;;;;;;;;;;4955513;29;20029;-88
2021/11/20 01:08:57;;;;;;;0.10;0.10;;;;;;;;;;4956951;28;20120;-88
2021/11/20 01:11:22;;;;;;;0.00;0.00;;;;;;;;;;4975132;28;20495;-88
2021/11/20 01:13:48;;;;;;;0.35;0.35;;;;;;;;;;4975021;28;20094;-88
2021/11/20 01:16:15;;;;;;;0.00;0.00;;;;;;;;;;4974825;28;20027;-88
2021/11/20 01:18:41;;;;;;;0.00;0.00;;;;;;;;;;4952713;28;20072;-88
2021/11/20 01:21:06;;;;;;;0.10;0.10;;;;;;;;;;4973761;28;20023;-88
2021/11/20 01:23:32;;;;;;;0.10;0.10;;;;;;;;;;4975251;28;20032;-88
2021/11/20 01:25:58;;;;;;;0.10;0.10;;;;;;;;;;4974946;28;20174;-88
2021/11/20 01:28:24;;;;;;;0.10;0.10;;;;;;;;;;4972899;28;20031;-88
2021/11/20 01:30:50;;;;;;;0.85;0.85;;;;;;;;;;4975145;28;20023;-89
2021/11/20 01:33:17;;;;;;;0.05;0.05;;;;;;;;;;4974894;28;20039;-88
2021/11/20 01:35:42;;;;;;;0.43;0.43;;;;;;;;;;4974751;28;20023;-88
2021/11/20 01:38:09;;;;;;;0.65;0.65;;;;;;;;;;4974677;28;20061;-88
2021/11/20 01:40:36;;;;;;;0.13;0.13;;;;;;;;;;4974408;28;20106;-88
2021/11/20 01:43:02;;;;;;;0.22;0.22;;;;;;;;;;4974852;28;20046;-88
2021/11/20 01:45:32;;;;;;;0.85;0.55;;;;;;;;;;4974797;28;20015;-88
2021/11/20 01:48:26;;;;;;;0.00;0.00;;;;;;;;;;4974710;28;20086;-88
2021/11/20 01:50:55;;;;;;;0.00;0.00;;;;;;;;;;4965708;28;20554;-89
2021/11/20 01:53:25;;;;;;;1.65;0.70;;;;;;;;;;4974752;28;20037;-88
2021/11/20 01:55:50;;;;;;;0.38;0.38;;;;;;;;;;4974556;28;20033;-88
2021/11/20 01:58:29;;;;;;;0.20;0.20;;;;;;;;;;4974481;28;20031;-88
2021/11/20 02:01:05;;;;;;;0.00;0.00;;;;;;;;;;4957071;28;20035;-88
2021/11/20 02:03:38;;;;;;;0.15;0.15;;;;;;;;;;4974710;28;20522;-89
2021/11/20 02:06:04;;;;;;;0.32;0.32;;;;;;;;;;4974525;28;20026;-88
2021/11/20 02:08:33;;;;;;;0.52;0.22;;;;;;;;;;4974500;28;20030;-87
2021/11/20 02:11:06;;;;;;;0.10;0.10;;;;;;;;;;4974050;28;20098;-88
2021/11/20 02:13:32;;;;;;;0.00;0.00;;;;;;;;;;4974642;28;20039;-88
2021/11/20 02:16:01;;;;;;;0.20;0.20;;;;;;;;;;4974405;28;20022;-88
2021/11/20 02:18:29;;;;;;;0.65;0.65;;;;;;;;;;4974475;28;20027;-88
2021/11/20 02:21:07;;;;;;;0.00;0.00;;;;;;;;;;4974539;28;20039;-88
2021/11/20 02:23:32;;;;;;;0.00;0.00;;;;;;;;;;4974314;28;20023;-87
2021/11/20 02:25:59;;;;;;;0.20;0.20;;;;;;;;;;4974319;28;20037;-87
2021/11/20 02:28:24;;;;;;;0.00;0.00;;;;;;;;;;4975508;28;20026;-87
2021/11/20 02:30:50;;;;;;;0.20;0.20;;;;;;;;;;4977623;28;20034;-87
2021/11/20 02:33:15;;;;;;;0.10;0.10;;;;;;;;;;4977814;28;20046;-87
2021/11/20 02:35:45;;;;;;;0.73;0.73;;;;;;;;;;4977863;28;20471;-88
2021/11/20 02:38:17;;;;;;;0.85;0.57;;;;;;;;;;4974633;28;20487;-87
2021/11/20 02:40:43;;;;;;;0.52;0.50;;;;;;;;;;4977748;28;20042;-87
2021/11/20 02:43:09;;;;;;;0.22;0.22;;;;;;;;;;4960392;28;20114;-88
2021/11/20 02:45:37;;;;;;;0.17;0.17;;;;;;;;;;4977439;28;20463;-87
2021/11/20 02:48:03;;;;;;;0.57;0.57;;;;;;;;;;4977739;28;20035;-88
2021/11/20 02:50:33;;;;;;;0.00;0.00;;;;;;;;;;4977626;28;20451;-88
2021/11/20 02:52:58;;;;;;;0.55;0.55;;;;;;;;;;4975568;28;20034;-88
2021/11/20 02:55:24;;;;;;;0.28;0.28;;;;;;;;;;4977739;28;20454;-89
2021/11/20 02:57:49;;;;;;;0.00;0.00;;;;;;;;;;4977148;28;20130;-88
2021/11/20 03:00:16;;;;;;;0.35;0.35;;;;;;;;;;4977377;28;20102;-88
2021/11/20 03:02:41;;;;;;;4.28;0.65;;;;;;;;;;4977562;28;20084;-88
2021/11/20 03:05:07;;;;;;;0.10;0.10;;;;;;;;;;4975249;28;20031;-89
2021/11/20 03:07:33;;;;;;;0.73;0.30;;;;;;;;;;4975149;28;20030;-89
2021/11/20 03:09:58;;;;;;;0.08;0.08;;;;;;;;;;4977415;28;20065;-88
2021/11/20 03:12:23;;;;;;;0.20;0.20;;;;;;;;;;4977377;28;20030;-88
2021/11/20 03:14:49;;;;;;;0.57;0.47;;;;;;;;;;4977211;28;20023;-88
2021/11/20 03:17:14;;;;;;;0.03;0.03;;;;;;;;;;4977226;28;20078;-88
2021/11/20 03:19:41;;;;;;;0.03;0.03;;;;;;;;;;4977105;28;20431;-87
2021/11/20 03:22:09;;;;;;;0.00;0.00;;;;;;;;;;4977299;28;20018;-87
2021/11/20 03:24:35;;;;;;;0.45;0.45;;;;;;;;;;4976921;28;20065;-86
2021/11/20 03:27:00;;;;;;;0.35;0.35;;;;;;;;;;4976610;28;20026;-88
2021/11/20 03:29:26;;;;;;;0.10;0.10;;;;;;;;;;4976991;28;20099;-87
2021/11/20 03:31:54;;;;;;;0.00;0.00;;;;;;;;;;4976872;28;20117;-88
2021/11/20 03:34:21;;;;;;;0.63;0.55;;;;;;;;;;4976938;28;20019;-88
2021/11/20 03:36:46;;;;;;;0.10;0.10;;;;;;;;;;4974537;28;20054;-87
2021/11/20 03:39:12;;;;;;;0.20;0.20;;;;;;;;;;4976333;28;20034;-88
2021/11/20 03:41:38;;;;;;;0.05;0.05;;;;;;;;;;4976559;28;20436;-87
2021/11/20 03:44:03;;;;;;;0.20;0.20;;;;;;;;;;4977081;28;20029;-88
2021/11/20 03:46:28;;;;;;;2.63;1.38;;;;;;;;;;4976873;28;20039;-88
2021/11/20 03:48:54;;;;;;;0.10;0.10;;;;;;;;;;4976595;28;20026;-87
2021/11/20 03:51:19;;;;;;;0.15;0.15;;;;;;;;;;4976753;28;20054;-87
2021/11/20 03:53:44;;;;;;;0.00;0.00;;;;;;;;;;4976404;28;20034;-88
2021/11/20 03:56:10;;;;;;;0.00;0.00;;;;;;;;;;4976922;28;20474;-88
2021/11/20 03:58:37;;;;;;;0.10;0.10;;;;;;;;;;4976320;28;20023;-88
2021/11/20 04:01:06;;;;;;;0.08;0.08;;;;;;;;;;4976093;28;20468;-88
2021/11/20 04:03:31;;;;;;;0.17;0.17;;;;;;;;;;4976440;28;20019;-89
2021/11/20 04:05:58;;;;;;;0.15;0.15;;;;;;;;;;4976266;28;20030;-88
2021/11/20 04:08:25;;;;;;;0.63;0.47;;;;;;;;;;4976342;28;20074;-88
2021/11/20 04:10:50;;;;;;;2.00;0.90;;;;;;;;;;4975871;28;20101;-88
2021/11/20 04:13:16;;;;;;;0.10;0.10;;;;;;;;;;4976021;28;20415;-88
2021/11/20 04:15:42;;;;;;;0.10;0.10;;;;;;;;;;4974834;28;20038;-88
2021/11/20 04:18:07;;;;;;;0.20;0.20;;;;;;;;;;4975819;28;20035;-89
2021/11/20 04:20:33;;;;;;;0.20;0.20;;;;;;;;;;4975890;28;20061;-89
2021/11/20 04:22:58;;;;;;;0.17;0.17;;;;;;;;;;4976102;28;20034;-89
2021/11/20 04:25:24;;;;;;;0.10;0.10;;;;;;;;;;4975801;28;20019;-88
2021/11/20 04:27:49;;;;;;;0.22;0.22;;;;;;;;;;4975828;28;20069;-88
2021/11/20 04:30:15;;;;;;;0.08;0.08;;;;;;;;;;4975521;28;20279;-88
2021/11/20 04:32:40;;;;;;;0.10;0.10;;;;;;;;;;4975387;28;20029;-87
2021/11/20 04:35:07;;;;;;;0.10;0.10;;;;;;;;;;4975717;28;20062;-87
2021/11/20 04:37:32;;;;;;;0.00;0.00;;;;;;;;;;4975721;28;20130;-88
2021/11/20 04:39:58;;;;;;;0.10;0.10;;;;;;;;;;4975573;28;20102;-87
2021/11/20 04:42:23;;;;;;;0.10;0.10;;;;;;;;;;4975661;28;20073;-87
2021/11/20 04:44:49;;;;;;;0.00;0.00;;;;;;;;;;4975388;28;20039;-88
2021/11/20 04:47:14;;;;;;;0.88;0.85;;;;;;;;;;4975542;28;20023;-87
2021/11/20 04:49:39;;;;;;;0.75;0.50;;;;;;;;;;4975462;28;20383;-87
2021/11/20 04:52:05;;;;;;;0.10;0.10;;;;;;;;;;4974882;28;20073;-88
2021/11/20 04:54:30;;;;;;;0.10;0.10;;;;;;;;;;4975390;28;20023;-88
2021/11/20 04:56:56;;;;;;;0.43;0.43;;;;;;;;;;4973334;28;20034;-88
2021/11/20 04:59:22;;;;;;;0.10;0.10;;;;;;;;;;4975387;28;20039;-88
2021/11/20 05:01:47;;;;;;;0.10;0.10;;;;;;;;;;4971914;28;20027;-88
2021/11/20 05:04:13;;;;;;;0.13;0.13;;;;;;;;;;4975362;28;20027;-88
2021/11/20 05:06:38;;;;;;;0.10;0.10;;;;;;;;;;4974759;28;20031;-88
2021/11/20 05:09:03;;;;;;;0.00;0.00;;;;;;;;;;4957688;28;20034;-87
2021/11/20 05:11:30;;;;;;;0.43;0.43;;;;;;;;;;4975429;28;20027;-86
2021/11/20 05:13:56;;;;;;;0.20;0.20;;;;;;;;;;4957561;28;20039;-87
2021/11/20 05:16:21;;;;;;;0.40;0.40;;;;;;;;;;4975025;28;20522;-87
2021/11/20 05:18:47;;;;;;;0.15;0.15;;;;;;;;;;4975342;28;20026;-88
2021/11/20 05:21:15;;;;;;;0.05;0.05;;;;;;;;;;4974992;28;20030;-88
2021/11/20 05:23:41;;;;;;;0.00;0.00;;;;;;;;;;4974979;28;20100;-88
2021/11/20 05:26:09;;;;;;;0.00;0.00;;;;;;;;;;4974747;28;20023;-88
2021/11/20 05:28:35;;;;;;;0.10;0.10;;;;;;;;;;4974500;28;20502;-87
2021/11/20 05:31:00;;;;;;;0.20;0.20;;;;;;;;;;4970127;28;20023;-88
2021/11/20 05:33:34;;;;;;;0.10;0.10;;;;;;;;;;4974887;28;20038;-87
2021/11/20 05:35:59;;;;;;;0.10;0.10;;;;;;;;;;4974735;28;20035;-87
2021/11/20 05:38:25;;;;;;;0.30;0.30;;;;;;;;;;4974972;28;20022;-87
2021/11/20 05:40:50;;;;;;;0.20;0.20;;;;;;;;;;4974390;28;20490;-88
2021/11/20 05:43:17;;;;;;;0.32;0.32;;;;;;;;;;4974825;28;20495;-88
2021/11/20 05:45:44;;;;;;;0.00;0.00;;;;;;;;;;4974756;28;20023;-88
2021/11/20 05:48:10;;;;;;;0.00;0.00;;;;;;;;;;4974827;28;20018;-88
2021/11/20 05:50:37;;;;;;;0.32;0.30;;;;;;;;;;4974726;28;20043;-88
2021/11/20 05:53:07;;;;;;;0.45;0.45;;;;;;;;;;4975049;28;20081;-88
2021/11/20 05:55:33;;;;;;;0.45;0.45;;;;;;;;;;4957494;28;20442;-88
2021/11/20 05:57:58;;;;;;;0.03;0.03;;;;;;;;;;4974611;28;20050;-88
2021/11/20 06:00:25;;;;;;;0.85;0.85;;;;;;;;;;4974798;28;20106;-88
2021/11/20 06:02:51;;;;;;;0.10;0.10;;;;;;;;;;4975212;28;20030;-88
2021/11/20 06:05:17;;;;;;;0.10;0.10;;;;;;;;;;4978227;28;20121;-89
2021/11/20 06:07:42;;;;;;;1.52;1.25;;;;;;;;;;4978466;28;20158;-88
2021/11/20 06:10:08;;;;;;;0.00;0.00;;;;;;;;;;4978257;28;20058;-89
2021/11/20 06:12:33;;;;;;;0.43;0.43;;;;;;;;;;4978219;28;20038;-88
2021/11/20 06:14:59;;;;;;;0.20;0.20;;;;;;;;;;4978008;28;20031;-88
2021/11/20 06:17:24;;;;;;;0.20;0.20;;;;;;;;;;4975273;28;20074;-88
2021/11/20 06:19:49;;;;;;;0.57;0.57;;;;;;;;;;4977891;28;20503;-88
2021/11/20 06:22:15;;;;;;;0.10;0.10;;;;;;;;;;4978588;28;20023;-88
2021/11/20 06:24:40;;;;;;;0.85;0.85;;;;;;;;;;4978146;28;20366;-88
2021/11/20 06:27:05;;;;;;;0.73;0.73;;;;;;;;;;4978140;28;20181;-88
2021/11/20 06:29:31;;;;;;;0.10;0.10;;;;;;;;;;4978047;28;20023;-88
2021/11/20 06:31:56;;;;;;;0.08;0.08;;;;;;;;;;4978018;28;20073;-88
2021/11/20 06:34:22;;;;;;;0.10;0.10;;;;;;;;;;4978141;28;20034;-87
2021/11/20 06:36:48;;;;;;;0.75;0.47;;;;;;;;;;4977725;28;20403;-87
2021/11/20 06:39:14;;;;;;;0.30;0.30;;;;;;;;;;4977638;28;20019;-87
2021/11/20 06:41:40;;;;;;;0.15;0.15;;;;;;;;;;4977972;28;20045;-88
2021/11/20 06:44:05;;;;;;;0.10;0.10;;;;;;;;;;4977754;28;20026;-88
2021/11/20 06:46:31;;;;;;;0.93;0.43;;;;;;;;;;4977486;28;20455;-87
2021/11/20 06:48:56;;;;;;;0.00;0.00;;;;;;;;;;4957467;28;20066;-87
2021/11/20 06:51:22;;;;;;;0.10;0.10;;;;;;;;;;4977800;28;20023;-88
2021/11/20 06:53:47;;;;;;;0.10;0.10;;;;;;;;;;4977605;28;20026;-87
2021/11/20 06:56:25;;;;;;;0.08;0.08;;;;;;;;;;4974182;28;20510;-87
2021/11/20 07:01:17;;;;;;;0.38;0.38;;;;;;;;;;4977415;28;20074;-87
2021/11/20 07:03:45;;;;;;;0.28;0.28;;;;;;;;;;4959960;28;20379;-87
2021/11/20 07:06:19;;;;;;;0.10;0.10;;;;;;;;;;4977124;28;20582;-86
2021/11/20 07:08:45;;;;;;;2.08;0.30;;;;;;;;;;4977213;28;20039;-86
2021/11/20 07:11:11;;;;;;;0.10;0.10;;;;;;;;;;4989149;28;20043;-86
2021/11/20 07:13:37;;;;;;;0.10;0.10;;;;;;;;;;4976686;28;20046;-87
2021/11/20 07:16:03;;;;;;;0.57;0.57;;;;;;;;;;4976815;28;20038;-87
2021/11/20 07:18:28;;;;;;;0.03;0.03;;;;;;;;;;4973302;28;20026;-88
2021/11/20 07:20:53;;;;;;;0.20;0.20;;;;;;;;;;4996536;28;20085;-88
2021/11/20 07:23:19;;;;;;;0.00;0.00;;;;;;;;;;4996622;28;20034;-88
2021/11/20 07:25:44;;;;;;;0.00;0.00;;;;;;;;;;4996488;28;20374;-88
2021/11/20 07:28:10;;;;;;;0.45;0.45;;;;;;;;;;4996106;28;20030;-87
2021/11/20 07:30:36;;;;;;;0.10;0.10;;;;;;;;;;4996104;28;20073;-87
2021/11/20 07:33:02;;;;;;;0.00;0.00;;;;;;;;;;4996357;28;20088;-86
2021/11/20 07:35:36;;;;;;;0.00;0.00;;;;;;;;;;4996033;28;20434;-87
2021/11/20 07:38:03;;;;;;;0.10;0.10;;;;;;;;;;4996223;28;20046;-86
2021/11/20 07:40:30;;;;;;;0.10;0.10;;;;;;;;;;4996180;28;20113;-88
2021/11/20 07:42:55;;;;;;;0.63;0.63;;;;;;;;;;4996096;28;20045;-87
2021/11/20 07:45:20;;;;;;;0.20;0.20;;;;;;;;;;4995425;28;20027;-88
2021/11/20 07:47:46;;;;;;;0.05;0.05;;;;;;;;;;4990940;28;20398;-88
2021/11/20 07:50:11;;;;;;;0.10;0.10;;;;;;;;;;4995982;28;20019;-88
2021/11/20 07:52:37;;;;;;;1.30;0.75;;;;;;;;;;4979973;28;20031;-86
2021/11/20 07:55:03;;;;;;;0.10;0.10;;;;;;;;;;4992682;28;20093;-85
2021/11/20 07:57:28;;;;;;;0.10;0.10;;;;;;;;;;4978448;28;20034;-87
2021/11/20 07:59:54;;;;;;;0.63;0.60;;;;;;;;;;4976355;28;20031;-87
2021/11/20 08:02:19;;;;;;;0.30;0.30;;;;;;;;;;4976485;28;20030;-87
2021/11/20 08:04:44;;;;;;;0.82;0.13;;;;;;;;;;4976320;28;20033;-88
2021/11/20 08:07:09;;;;;;;1.27;0.47;;;;;;;;;;4976205;28;20387;-87
2021/11/20 08:09:35;;;;;;;0.20;0.20;;;;;;;;;;4975965;28;20054;-86
2021/11/20 08:12:02;;;;;;;0.00;0.00;;;;;;;;;;4976154;28;20099;-87
2021/11/20 08:14:27;;;;;;;0.00;0.00;;;;;;;;;;4976144;28;20027;-87
2021/11/20 08:16:52;;;;;;;0.30;0.30;;;;;;;;;;4968805;28;20089;-86
2021/11/20 08:19:18;;;;;;;0.10;0.10;;;;;;;;;;4976024;28;20375;-87
2021/11/20 08:21:43;;;;;;;0.08;0.08;;;;;;;;;;4958540;28;20037;-86
2021/11/20 08:24:09;;;;;;;0.52;0.52;;;;;;;;;;4975578;28;20493;-86
2021/11/20 08:26:37;;;;;;;0.25;0.25;;;;;;;;;;4974841;28;20038;-86
2021/11/20 08:29:07;;;;;;;0.30;0.30;;;;;;;;;;4975754;28;20082;-86
2021/11/20 08:31:34;;;;;;;20.38;0.73;;;;;;;;;;4975748;28;20097;-86
2021/11/20 08:33:59;;;;;;;1.75;0.73;;;;;;;;;;4975633;28;20023;-86
2021/11/20 08:36:24;;;;;;;0.38;0.38;;;;;;;;;;4975729;28;20440;-86
2021/11/20 08:38:50;;;;;;;0.00;0.00;;;;;;;;;;4975280;28;20045;-85
2021/11/20 08:41:15;;;;;;;0.40;0.28;;;;;;;;;;4958412;28;20050;-85
2021/11/20 08:43:40;;;;;;;0.15;0.15;;;;;;;;;;4975413;28;20384;-85
2021/11/20 08:46:06;;;;;;;0.28;0.20;;;;;;;;;;4975424;28;20485;-86
2021/11/20 08:48:32;;;;;;;0.00;0.00;;;;;;;;;;4975390;28;20117;-85
2021/11/20 08:51:03;;;;;;;0.00;0.00;;;;;;;;;;4975387;28;20031;-86
2021/11/20 08:53:28;;;;;;;0.15;0.15;;;;;;;;;;4975628;28;20039;-85
2021/11/20 08:55:54;;;;;;;0.20;0.20;;;;;;;;;;4975491;28;20479;-86
2021/11/20 08:58:20;;;;;;;0.13;0.13;;;;;;;;;;4972379;28;20038;-86
2021/11/20 09:00:50;;;;;;;0.08;0.08;;;;;;;;;;4994144;28;20041;-85
2021/11/20 09:03:25;;;;;;;0.10;0.10;;;;;;;;;;4994384;28;20485;-86
2021/11/20 09:06:02;;;;;;;0.10;0.10;;;;;;;;;;4994436;28;20030;-86
2021/11/20 09:08:32;;;;;;;0.32;0.32;;;;;;;;;;4994248;28;20470;-86
2021/11/20 09:11:06;;;;;;;0.10;0.10;;;;;;;;;;4994066;28;20050;-86
2021/11/20 09:13:42;;;;;;;1.17;0.50;;;;;;;;;;4994755;28;20038;-83
2021/11/20 09:16:11;;;;;;;1.85;0.82;;;;;;;;;;4991902;28;20031;-86
2021/11/20 09:18:37;;;;;;;0.00;0.00;;;;;;;;;;4955180;29;20483;-85
2021/11/20 09:21:03;;;;;;;0.20;0.20;;;;;;;;;;4958807;28;20022;-86
2021/11/20 09:23:28;;;;;;;0.00;0.00;;;;;;;;;;4974709;28;20366;-85
2021/11/20 09:25:55;;;;;;;0.05;0.05;;;;;;;;;;4974462;28;20030;-85
2021/11/20 09:28:21;;;;;;;0.20;0.20;;;;;;;;;;4974332;28;20030;-86
2021/11/20 09:30:48;;;;;;;0.45;0.45;;;;;;;;;;4974738;28;20035;-85
2021/11/20 09:33:13;;;;;;;0.17;0.17;;;;;;;;;;4987415;28;20038;-85
2021/11/20 09:35:40;;;;;;;0.00;0.00;;;;;;;;;;4974778;28;20046;-85
2021/11/20 09:38:05;;;;;;;0.10;0.10;;;;;;;;;;4974379;28;20122;-85
2021/11/20 09:40:32;;;;;;;0.17;0.17;;;;;;;;;;4974699;28;20126;-85
2021/11/20 09:43:01;;;;;;;0.00;0.00;;;;;;;;;;4969961;28;20030;-85
2021/11/20 09:45:30;;;;;;;0.65;0.65;;;;;;;;;;4981409;28;20030;-86
2021/11/20 09:47:58;;;;;;;0.73;0.73;;;;;;;;;;4993851;28;20045;-85
2021/11/20 09:50:26;;;;;;;0.40;0.40;;;;;;;;;;4993732;28;20030;-85
2021/11/20 09:52:52;;;;;;;1.25;0.95;;;;;;;;;;4993569;28;20029;-86
2021/11/20 09:55:28;;;;;;;1.35;0.50;;;;;;;;;;4993924;28;20038;-87
2021/11/20 09:58:05;;;;;;;0.80;0.30;;;;;;;;;;4993627;28;20049;-85
2021/11/20 10:00:49;;;;;;;0.40;0.40;;;;;;;;;;4993574;28;20034;-86
2021/11/20 10:03:44;;;;;;;1.52;1.42;;;;;;;;;;4993836;28;20038;-86
2021/11/20 10:06:12;;;;;;;0.30;0.30;;;;;;;;;;4976547;28;20053;-86
2021/11/20 10:08:42;;;;;;;0.20;0.20;;;;;;;;;;4993550;28;20360;-85
2021/11/20 10:11:07;;;;;;;4.55;1.80;;;;;;;;;;4992976;28;20402;-86
2021/11/20 10:13:33;;;;;;;1.55;0.93;;;;;;;;;;4993387;28;20023;-86
2021/11/20 10:16:04;;;;;;;0.25;0.25;;;;;;;;;;4993894;28;20069;-86
2021/11/20 10:18:51;;;;;;;0.00;0.00;;;;;;;;;;4993677;28;20542;-86
2021/11/20 10:21:34;;;;;;;0.00;0.00;;;;;;;;;;4993892;28;20089;-86
2021/11/20 10:24:35;;;;;;;0.63;0.63;;;;;;;;;;4993735;28;20030;-85
2021/11/20 10:27:00;;;;;;;0.10;0.10;;;;;;;;;;4914470;29;20028;-87
2021/11/20 10:29:44;;;;;;;0.32;0.32;;;;;;;;;;4976845;28;20058;-86
2021/11/20 10:32:17;;;;;;;1.73;0.95;;;;;;;;;;4993650;28;20385;-86
2021/11/20 10:34:48;;;;;;;0.00;0.00;;;;;;;;;;4993679;28;20121;-86
2021/11/20 10:37:13;;;;;;;0.32;0.32;;;;;;;;;;4976822;28;20376;-86
2021/11/20 10:39:44;;;;;;;0.20;0.20;;;;;;;;;;4963699;28;20039;-88
2021/11/20 10:42:17;;;;;;;0.93;0.82;;;;;;;;;;4961060;28;20022;-88
2021/11/20 10:44:46;;;;;;;1.00;0.75;;;;;;;;;;4962781;28;20471;-87
2021/11/20 10:47:11;;;;;;;0.22;0.22;;;;;;;;;;4959554;28;20241;-88
2021/11/20 10:49:48;;;;;;;1.02;0.95;;;;;;;;;;4958944;28;20125;-87
2021/11/20 10:52:14;;;;;;;0.22;0.22;;;;;;;;;;4962666;28;20144;-86
2021/11/20 10:54:54;;;;;;;0.00;0.00;;;;;;;;;;4964926;28;20595;-88
2021/11/20 10:57:29;;;;;;;0.30;0.30;;;;;;;;;;4950504;28;20403;-88
2021/11/20 11:00:17;;;;;;;0.40;0.40;;;;;;;;;;4964004;28;20067;-88
2021/11/20 11:02:46;;;;;;;0.28;0.28;;;;;;;;;;4976036;28;20023;-88
2021/11/20 11:05:11;;;;;;;0.43;0.43;;;;;;;;;;4973964;28;20049;-88
2021/11/20 11:07:49;;;;;;;0.05;0.05;;;;;;;;;;4975671;28;20019;-87
2021/11/20 11:10:20;;;;;;;0.22;0.22;;;;;;;;;;4974305;28;20062;-86
2021/11/20 11:12:58;;;;;;;0.43;0.43;;;;;;;;;;4978127;28;20037;-86
2021/11/20 11:15:29;;;;;;;0.73;0.73;;;;;;;;;;4972846;28;20027;-87
2021/11/20 11:17:58;;;;;;;0.22;0.20;;;;;;;;;;4974398;28;20475;-86
2021/11/20 11:20:42;;;;;;;0.22;0.22;;;;;;;;;;4978824;28;20165;-88
2021/11/20 11:23:10;;;;;;;0.00;0.00;;;;;;;;;;4978644;28;20026;-88
2021/11/20 11:25:41;;;;;;;1.58;0.20;;;;;;;;;;4977076;28;20026;-88
2021/11/20 11:28:15;;;;;;;0.88;0.80;;;;;;;;;;4968455;28;20042;-87
2021/11/20 11:30:52;;;;;;;1.35;1.00;;;;;;;;;;4971104;28;20109;-84
2021/11/20 11:33:18;;;;;;;0.10;0.10;;;;;;;;;;4973165;28;20034;-88
2021/11/20 11:35:45;;;;;;;1.00;0.63;;;;;;;;;;4975847;28;20033;-86
2021/11/20 11:38:20;;;;;;;0.35;0.35;;;;;;;;;;4974041;28;20054;-88
2021/11/20 11:41:03;;;;;;;0.20;0.20;;;;;;;;;;4975885;28;20031;-88
2021/11/20 11:43:44;;;;;;;0.10;0.10;;;;;;;;;;4974210;28;20027;-87
2021/11/20 11:46:09;;;;;;;2.90;1.65;;;;;;;;;;4972581;28;20046;-88
2021/11/20 11:48:34;;;;;;;0.50;0.50;;;;;;;;;;4976482;28;20026;-87
2021/11/20 11:51:06;;;;;;;0.15;0.15;;;;;;;;;;4975890;28;20479;-88
2021/11/20 11:53:40;;;;;;;0.00;0.00;;;;;;;;;;4980756;28;20048;-87
2021/11/20 11:56:10;;;;;;;0.00;0.00;;;;;;;;;;4975438;28;20387;-88
2021/11/20 11:58:55;;;;;;;0.10;0.10;;;;;;;;;;4978133;28;20039;-87
2021/11/20 12:01:38;;;;;;;0.20;0.20;;;;;;;;;;4971818;28;20049;-88
2021/11/20 12:04:17;;;;;;;0.40;0.30;;;;;;;;;;4974333;28;20118;-88
2021/11/20 12:06:45;;;;;;;3.53;0.70;;;;;;;;;;4977360;28;20105;-88
2021/11/20 12:09:17;;;;;;;0.22;0.22;;;;;;;;;;4972769;28;20050;-88
2021/11/20 12:11:43;;;;;;;0.40;0.40;;;;;;;;;;4973009;28;20106;-88
2021/11/20 12:14:18;;;;;;;0.00;0.00;;;;;;;;;;4976236;28;20493;-87
2021/11/20 12:16:48;;;;;;;0.65;0.63;;;;;;;;;;4973107;28;20031;-85
2021/11/20 12:19:27;;;;;;;0.30;0.30;;;;;;;;;;4971671;28;20579;-87
2021/11/20 12:22:11;;;;;;;0.70;0.57;;;;;;;;;;4975288;28;20026;-87
2021/11/20 12:24:47;;;;;;;0.20;0.20;;;;;;;;;;4971798;28;20039;-88
2021/11/20 12:27:31;;;;;;;3.47;1.50;;;;;;;;;;4976703;28;20034;-87
2021/11/20 12:30:11;;;;;;;0.10;0.10;;;;;;;;;;4977119;28;20125;-87
2021/11/20 12:32:53;;;;;;;0.00;0.00;;;;;;;;;;4974251;28;20023;-88
2021/11/20 12:35:24;;;;;;;0.00;0.00;;;;;;;;;;4980717;28;20031;-87
2021/11/20 12:37:55;;;;;;;0.00;0.00;;;;;;;;;;4972068;28;20042;-87
2021/11/20 12:40:39;;;;;;;0.03;0.03;;;;;;;;;;4973622;28;20383;-88
2021/11/20 12:43:23;;;;;;;0.82;0.82;;;;;;;;;;4975549;28;20027;-88
2021/11/20 12:45:55;;;;;;;0.10;0.10;;;;;;;;;;4972124;28;20037;-88
2021/11/20 12:48:31;;;;;;;0.30;0.30;;;;;;;;;;4973021;28;20023;-87
2021/11/20 12:51:09;;;;;;;0.00;0.00;;;;;;;;;;4974932;28;20038;-88
2021/11/20 12:53:37;;;;;;;1.20;0.82;;;;;;;;;;4973727;28;20034;-88
2021/11/20 12:56:06;;;;;;;0.05;0.05;;;;;;;;;;4974247;28;20482;-88
2021/11/20 12:58:36;;;;;;;0.70;0.55;;;;;;;;;;4973895;28;20069;-87
2021/11/20 13:01:04;;;;;;;0.15;0.15;;;;;;;;;;4972799;28;20085;-88
2021/11/20 13:03:29;;;;;;;0.00;0.00;;;;;;;;;;4972215;28;20035;-88
2021/11/20 13:05:56;;;;;;;0.85;0.38;;;;;;;;;;4971771;28;20042;-87
2021/11/20 13:08:21;;;;;;;0.45;0.45;;;;;;;;;;4955783;28;21307;-88
2021/11/20 13:10:58;;;;;;;0.20;0.20;;;;;;;;;;4971211;28;20073;-88
2021/11/20 13:13:30;;;;;;;0.10;0.10;;;;;;;;;;4969517;28;20030;-87
2021/11/20 13:16:05;;;;;;;3.15;1.70;;;;;;;;;;4972686;28;20045;-88
2021/11/20 13:18:33;;;;;;;4.50;1.55;;;;;;;;;;4974363;28;21316;-87
2021/11/20 13:21:05;;;;;;;1.05;0.98;;;;;;;;;;4972913;28;20033;-88
2021/11/20 13:23:31;;;;;;;0.50;0.50;;;;;;;;;;4968656;28;20056;-87
2021/11/20 13:25:59;;;;;;;0.25;0.25;;;;;;;;;;4974071;28;20434;-89
2021/11/20 13:28:24;;;;;;;0.20;0.20;;;;;;;;;;4971502;28;20018;-87
2021/11/20 13:30:50;;;;;;;0.38;0.38;;;;;;;;;;4974049;28;20073;-87
2021/11/20 13:33:15;;;;;;;0.75;0.75;;;;;;;;;;4972574;28;20035;-88
2021/11/20 13:35:41;;;;;;;0.80;0.65;;;;;;;;;;4976058;28;20493;-88
2021/11/20 13:38:12;;;;;;;0.30;0.30;;;;;;;;;;4973631;28;20047;-89
2021/11/20 13:40:49;;;;;;;0.10;0.10;;;;;;;;;;4974443;28;20039;-78
2021/11/20 13:43:24;;;;;;;0.10;0.10;;;;;;;;;;4969179;28;20034;-88
2021/11/20 13:45:54;;;;;;;0.00;0.00;;;;;;;;;;4974077;28;20058;-86
2021/11/20 13:48:24;;;;;;;1.00;0.90;;;;;;;;;;4976707;28;20034;-86
2021/11/20 13:50:50;;;;;;;0.03;0.03;;;;;;;;;;4971618;28;20031;-86
2021/11/20 13:53:29;;;;;;;0.22;0.22;;;;;;;;;;4974477;28;20027;-87
2021/11/20 13:55:55;;;;;;;3.13;0.93;;;;;;;;;;4973685;28;20061;-87
2021/11/20 13:58:26;;;;;;;0.30;0.30;;;;;;;;;;4970710;28;20664;-87
2021/11/20 14:00:53;;;;;;;0.00;0.00;;;;;;;;;;4974106;28;20034;-88
2021/11/20 14:03:18;;;;;;;0.00;0.00;;;;;;;;;;4973693;28;20018;-88
2021/11/20 14:05:44;;;;;;;0.00;0.00;;;;;;;;;;4973360;28;20089;-88
2021/11/20 14:08:09;;;;;;;0.20;0.13;;;;;;;;;;4979597;28;20046;-88
2021/11/20 14:10:38;;;;;;;0.00;0.00;;;;;;;;;;4975994;28;20125;-88
2021/11/20 14:13:18;;;;;;;0.10;0.10;;;;;;;;;;4972663;28;20070;-88
2021/11/20 14:15:54;;;;;;;0.90;0.30;;;;;;;;;;4972753;28;20157;-88
2021/11/20 14:18:21;;;;;;;0.00;0.00;;;;;;;;;;4977718;28;20061;-89
2021/11/20 14:20:48;;;;;;;0.00;0.00;;;;;;;;;;4971916;28;20033;-88
2021/11/20 14:23:15;;;;;;;0.00;0.00;;;;;;;;;;4973125;28;20047;-87
2021/11/20 14:25:40;;;;;;;0.00;0.00;;;;;;;;;;4975749;28;20026;-88
2021/11/20 14:28:06;;;;;;;0.00;0.00;;;;;;;;;;4978810;28;20042;-87
2021/11/20 14:30:57;;;;;;;0.52;0.52;;;;;;;;;;4971740;28;20049;-88
2021/11/20 14:33:30;;;;;;;2.45;1.95;;;;;;;;;;4969630;28;20074;-86
2021/11/20 14:35:55;;;;;;;1.02;1.02;;;;;;;;;;4977391;28;20161;-87
2021/11/20 14:38:21;;;;;;;0.10;0.10;;;;;;;;;;4974245;28;20117;-87
2021/11/20 14:40:50;;;;;;;0.10;0.10;;;;;;;;;;4977011;28;20042;-86
2021/11/20 14:43:19;;;;;;;0.47;0.47;;;;;;;;;;4975666;28;20493;-87
2021/11/20 14:45:44;;;;;;;0.20;0.20;;;;;;;;;;4976344;28;20038;-87
2021/11/20 14:48:18;;;;;;;0.00;0.00;;;;;;;;;;4975445;28;20023;-87
2021/11/20 14:50:47;;;;;;;0.35;0.30;;;;;;;;;;4974967;28;20065;-86
2021/11/20 14:53:14;;;;;;;0.08;0.08;;;;;;;;;;4975493;28;20050;-86